Time;durP1;ratioP1;P1;durP2;ratioP2;P2;SDS_P1;SDS_P2;PMS_P1;PMS_P2;Temp;Humidity;BMP_temperature;BMP_pressure;BME280_temperature;BME280_humidity;BME280_pressure;Samples;Min_cycle;Max_cycle;Signal;HPM_P1;HPM_P2
2023/07/09 00:01:33;;;;;;;12.63;9.02;;;;;;;22.31;91.21;101626.69;5051322;28;20061;-71
2023/07/09 00:03:59;;;;;;;19.75;9.40;;;;;;;22.31;91.16;101618.72;5058209;28;20033;-71
2023/07/09 00:06:24;;;;;;;13.32;10.18;;;;;;;22.30;91.94;101623.19;5051488;28;20036;-71
2023/07/09 00:08:50;;;;;;;18.92;12.52;;;;;;;22.25;93.33;101609.31;5054632;28;20033;-71
2023/07/09 00:11:16;;;;;;;19.75;12.77;;;;;;;22.27;92.57;101628.69;5057503;28;20043;-71
2023/07/09 00:13:41;;;;;;;13.77;10.80;;;;;;;22.24;92.83;101622.69;5048471;28;20033;-71
2023/07/09 00:16:14;;;;;;;14.52;11.13;;;;;;;22.17;93.21;101627.50;5053571;28;20051;-71
2023/07/09 00:18:39;;;;;;;15.52;10.52;;;;;;;22.10;93.70;101634.09;5050692;28;20104;-70
2023/07/09 00:21:05;;;;;;;16.17;10.00;;;;;;;22.06;94.22;101629.91;5052144;28;20592;-70
2023/07/09 00:23:31;;;;;;;14.45;9.93;;;;;;;22.04;94.98;101640.63;5051456;28;20024;-71
2023/07/09 00:25:56;;;;;;;14.55;10.05;;;;;;;21.99;94.96;101626.75;5053626;28;20059;-71
2023/07/09 00:28:21;;;;;;;13.52;10.00;;;;;;;21.97;95.19;101632.19;5050733;28;20029;-71
2023/07/09 00:30:48;;;;;;;13.07;10.00;;;;;;;21.98;95.86;101630.38;5051080;28;20155;-71
2023/07/09 00:33:15;;;;;;;13.45;9.65;;;;;;;21.98;96.03;101635.69;5049813;28;20028;-71
2023/07/09 00:35:46;;;;;;;11.60;9.02;;;;;;;21.89;97.82;101630.91;5051419;28;20033;-71
2023/07/09 00:38:22;;;;;;;12.18;9.60;;;;;;;21.81;96.98;101646.41;5051760;28;20484;-71
2023/07/09 00:41:04;;;;;;;12.32;9.48;;;;;;;21.84;97.28;101648.88;5050061;28;20032;-71
2023/07/09 00:43:35;;;;;;;12.13;9.37;;;;;;;21.81;97.23;101646.41;5060009;28;20024;-71
2023/07/09 00:46:16;;;;;;;13.48;9.32;;;;;;;21.86;98.30;101644.34;5054317;28;20095;-71
2023/07/09 00:48:43;;;;;;;13.88;9.70;;;;;;;21.75;98.11;101645.00;5047164;28;20472;-71
2023/07/09 00:51:15;;;;;;;13.45;9.20;;;;;;;21.78;98.54;101642.16;5049815;28;20029;-70
2023/07/09 00:53:45;;;;;;;13.55;9.00;;;;;;;21.67;98.95;101647.22;5051113;28;20036;-71
2023/07/09 00:56:19;;;;;;;14.85;9.45;;;;;;;21.60;99.22;101649.38;5049766;28;20029;-71
2023/07/09 00:58:47;;;;;;;13.25;9.32;;;;;;;21.59;100.00;101647.66;5049922;28;20032;-70
2023/07/09 01:01:16;;;;;;;11.55;8.77;;;;;;;21.59;100.00;101655.63;5050639;28;20112;-70
2023/07/09 01:03:50;;;;;;;12.18;9.43;;;;;;;21.63;100.00;101651.84;5049794;28;20044;-71
2023/07/09 01:06:23;;;;;;;15.75;10.23;;;;;;;21.58;100.00;101645.97;5050750;28;20045;-70
2023/07/09 01:08:53;;;;;;;12.23;9.70;;;;;;;21.57;100.00;101649.53;5051284;28;20051;-71
2023/07/09 01:11:21;;;;;;;13.38;9.73;;;;;;;21.56;100.00;101646.97;5051472;28;20490;-71
2023/07/09 01:13:54;;;;;;;18.23;10.20;;;;;;;21.53;100.00;101647.16;5044352;28;20496;-71
2023/07/09 01:16:23;;;;;;;13.88;9.88;;;;;;;21.46;100.00;101641.34;5045341;28;20388;-71
2023/07/09 01:18:50;;;;;;;14.65;11.38;;;;;;;21.36;100.00;101641.00;5049576;28;20021;-70
2023/07/09 01:21:16;;;;;;;15.00;10.80;;;;;;;21.38;100.00;101633.78;5050385;28;20117;-71
2023/07/09 01:23:46;;;;;;;14.55;9.80;;;;;;;21.39;100.00;101637.34;5050612;28;20025;-71
2023/07/09 01:26:13;;;;;;;15.15;10.23;;;;;;;21.36;100.00;101642.81;5055554;28;20049;-70
2023/07/09 01:28:41;;;;;;;15.85;10.07;;;;;;;21.31;100.00;101632.41;5050512;28;20025;-71
2023/07/09 01:31:07;;;;;;;17.35;10.02;;;;;;;21.33;100.00;101640.28;5049105;28;20484;-71
2023/07/09 01:33:33;;;;;;;13.73;10.45;;;;;;;21.29;100.00;101639.59;5049231;28;20112;-71
2023/07/09 01:36:00;;;;;;;14.07;9.95;;;;;;;21.22;100.00;101640.88;5050608;28;20384;-71
2023/07/09 01:38:31;;;;;;;12.93;9.30;;;;;;;21.15;100.00;101658.91;5051517;28;20079;-71
2023/07/09 01:40:57;;;;;;;14.52;10.38;;;;;;;21.08;100.00;101657.53;5047053;28;20478;-71
2023/07/09 01:43:24;;;;;;;14.15;10.13;;;;;;;21.13;100.00;101652.00;5050178;28;20043;-71
2023/07/09 01:45:51;;;;;;;12.40;9.90;;;;;;;21.07;100.00;101653.19;5051949;28;20056;-71
2023/07/09 01:48:17;;;;;;;13.80;9.10;;;;;;;21.05;100.00;101657.72;5049578;28;20029;-71
2023/07/09 01:50:44;;;;;;;12.40;9.75;;;;;;;21.07;100.00;101658.50;5047698;28;20028;-71
2023/07/09 01:53:14;;;;;;;11.98;9.45;;;;;;;21.12;100.00;101661.72;5050666;28;20025;-71
2023/07/09 01:55:39;;;;;;;17.13;9.90;;;;;;;21.10;100.00;101657.47;5048211;28;20024;-71
2023/07/09 01:58:06;;;;;;;13.85;9.63;;;;;;;21.09;100.00;101656.63;5059249;28;20389;-71
2023/07/09 02:00:34;;;;;;;14.38;9.75;;;;;;;21.09;100.00;101669.00;5052683;28;20031;-71
2023/07/09 02:03:01;;;;;;;13.15;9.52;;;;;;;21.16;100.00;101671.25;5051067;28;20030;-71
2023/07/09 02:05:27;;;;;;;15.07;10.32;;;;;;;21.16;100.00;101673.06;5053447;28;20033;-71
2023/07/09 02:07:52;;;;;;;12.27;9.77;;;;;;;21.15;100.00;101672.16;5054508;28;20029;-71
2023/07/09 02:10:18;;;;;;;11.88;9.50;;;;;;;21.14;100.00;101661.66;5056612;28;20400;-71
2023/07/09 02:12:44;;;;;;;14.13;9.88;;;;;;;21.13;100.00;101655.50;5059554;28;20016;-71
2023/07/09 02:15:10;;;;;;;12.85;10.35;;;;;;;21.15;100.00;101664.22;5050395;28;20103;-70
2023/07/09 02:17:36;;;;;;;16.98;10.50;;;;;;;21.16;100.00;101667.75;5052452;28;20945;-71
2023/07/09 02:20:04;;;;;;;12.63;9.77;;;;;;;21.18;100.00;101665.84;5053872;28;20029;-71
2023/07/09 02:22:29;;;;;;;13.68;10.45;;;;;;;21.19;100.00;101664.91;5052888;28;20087;-71
2023/07/09 02:24:54;;;;;;;13.25;9.38;;;;;;;21.16;100.00;101663.28;5054011;28;20044;-70
2023/07/09 02:27:21;;;;;;;14.38;9.85;;;;;;;21.12;100.00;101669.69;5058501;28;20021;-71
2023/07/09 02:29:46;;;;;;;12.88;10.35;;;;;;;21.10;100.00;101660.13;5052103;28;20124;-71
2023/07/09 02:32:18;;;;;;;13.60;10.38;;;;;;;21.05;100.00;101663.00;5053360;28;20123;-71
2023/07/09 02:34:48;;;;;;;13.00;10.57;;;;;;;21.03;100.00;101664.91;5049945;28;20118;-71
2023/07/09 02:37:17;;;;;;;12.98;10.50;;;;;;;21.02;100.00;101663.16;5052594;28;20033;-71
2023/07/09 02:39:43;;;;;;;14.23;10.93;;;;;;;20.98;100.00;101665.13;5053543;28;20041;-71
2023/07/09 02:42:11;;;;;;;14.88;11.25;;;;;;;20.85;100.00;101656.13;5053365;28;20689;-71
2023/07/09 02:44:36;;;;;;;13.50;10.80;;;;;;;20.87;100.00;101664.88;5052451;28;20028;-70
2023/07/09 02:47:02;;;;;;;13.65;11.40;;;;;;;20.88;100.00;101668.38;5052097;28;20029;-71
2023/07/09 02:49:27;;;;;;;14.98;11.88;;;;;;;20.81;100.00;101666.03;5052842;28;20033;-71
2023/07/09 02:51:52;;;;;;;18.63;11.40;;;;;;;20.77;100.00;101659.22;5051421;28;20041;-71
2023/07/09 02:54:18;;;;;;;14.90;11.30;;;;;;;20.73;100.00;101660.31;5054010;28;20117;-70
2023/07/09 02:56:43;;;;;;;17.63;11.93;;;;;;;20.72;100.00;101663.88;5050295;28;20028;-71
2023/07/09 02:59:09;;;;;;;15.27;12.10;;;;;;;20.70;100.00;101663.13;5054100;28;20041;-70
2023/07/09 03:01:35;;;;;;;15.77;11.88;;;;;;;20.66;100.00;101666.00;5052113;28;20541;-71
2023/07/09 03:04:03;;;;;;;16.45;12.02;;;;;;;20.68;100.00;101659.69;5053726;28;20029;-71
2023/07/09 03:06:29;;;;;;;15.18;12.55;;;;;;;20.64;100.00;101655.50;5051965;28;20053;-70
2023/07/09 03:08:55;;;;;;;18.55;13.30;;;;;;;20.62;100.00;101661.81;5055509;28;20026;-71
2023/07/09 03:11:21;;;;;;;19.38;12.80;;;;;;;20.60;100.00;101663.66;5057664;28;20381;-71
2023/07/09 03:13:47;;;;;;;15.55;12.75;;;;;;;20.60;100.00;101667.19;5053357;28;20077;-71
2023/07/09 03:16:13;;;;;;;16.08;12.75;;;;;;;20.54;100.00;101662.22;5051382;28;20711;-71
2023/07/09 03:18:39;;;;;;;15.20;12.85;;;;;;;20.44;100.00;101655.66;5050250;28;20052;-71
2023/07/09 03:21:04;;;;;;;17.05;12.02;;;;;;;20.47;100.00;101655.47;5053110;28;20432;-71
2023/07/09 03:23:30;;;;;;;18.13;12.77;;;;;;;20.41;100.00;101653.16;5052200;28;20105;-71
2023/07/09 03:25:57;;;;;;;16.52;13.15;;;;;;;20.46;100.00;101659.91;5052277;28;20052;-70
2023/07/09 03:28:23;;;;;;;18.88;12.88;;;;;;;20.48;100.00;101665.16;5052744;28;20461;-71
2023/07/09 03:30:49;;;;;;;15.35;12.48;;;;;;;20.48;100.00;101667.81;5052661;28;20040;-71
2023/07/09 03:33:16;;;;;;;14.35;11.90;;;;;;;20.44;100.00;101663.59;5051830;28;20435;-71
2023/07/09 03:35:42;;;;;;;16.27;13.23;;;;;;;20.42;100.00;101662.81;5052676;28;20060;-71
2023/07/09 03:38:08;;;;;;;17.65;13.07;;;;;;;20.43;100.00;101659.22;5052604;28;20457;-71
2023/07/09 03:40:34;;;;;;;18.77;14.18;;;;;;;20.43;100.00;101659.22;5051268;28;20029;-70
2023/07/09 03:43:00;;;;;;;19.20;13.95;;;;;;;20.39;100.00;101658.53;5056077;28;20025;-71
2023/07/09 03:45:25;;;;;;;18.67;13.00;;;;;;;20.41;100.00;101661.97;5051686;28;20029;-70
2023/07/09 03:47:51;;;;;;;19.17;13.20;;;;;;;20.36;100.00;101663.97;5051728;28;20477;-70
2023/07/09 03:50:16;;;;;;;15.13;12.60;;;;;;;20.37;100.00;101664.84;5052680;28;20033;-71
2023/07/09 03:52:42;;;;;;;15.00;12.90;;;;;;;20.39;100.00;101663.81;5052425;28;20068;-70
2023/07/09 03:55:08;;;;;;;19.33;12.93;;;;;;;20.35;100.00;101662.28;5052756;28;20071;-71
2023/07/09 03:57:33;;;;;;;15.70;13.30;;;;;;;20.26;100.00;101639.75;5052714;28;20080;-70
2023/07/09 03:59:59;;;;;;;16.55;13.70;;;;;;;20.40;100.00;101664.69;5052040;28;20030;-71
2023/07/09 04:02:25;;;;;;;16.08;13.55;;;;;;;20.37;100.00;101662.19;5050272;28;20053;-70
2023/07/09 04:04:50;;;;;;;16.75;13.27;;;;;;;20.38;100.00;101661.28;5052285;28;20025;-71
2023/07/09 04:07:16;;;;;;;18.17;12.93;;;;;;;20.44;100.00;101660.97;5051973;28;20060;-70
2023/07/09 04:09:42;;;;;;;16.52;13.00;;;;;;;20.50;100.00;101665.91;5052671;28;20091;-70
2023/07/09 04:12:09;;;;;;;17.17;13.02;;;;;;;20.54;100.00;101656.91;5046492;28;20465;-70
2023/07/09 04:14:34;;;;;;;17.83;14.10;;;;;;;20.57;100.00;101662.06;5051259;28;20122;-70
2023/07/09 04:17:00;;;;;;;20.80;13.57;;;;;;;20.45;100.00;101647.63;5049818;28;20071;-70
2023/07/09 04:19:25;;;;;;;18.50;13.77;;;;;;;20.58;100.00;101666.41;5050667;28;20021;-71
2023/07/09 04:21:50;;;;;;;17.30;13.57;;;;;;;20.61;100.00;101668.06;5050709;28;20021;-70
2023/07/09 04:24:17;;;;;;;18.77;13.70;;;;;;;20.65;100.00;101669.59;5051758;28;20048;-70
2023/07/09 04:26:43;;;;;;;16.55;13.32;;;;;;;20.67;100.00;101667.72;5050521;28;20546;-70
2023/07/09 04:29:09;;;;;;;16.90;13.52;;;;;;;20.74;100.00;101675.28;5051737;28;20057;-71
2023/07/09 04:31:34;;;;;;;18.42;14.07;;;;;;;20.76;100.00;101669.88;5054626;28;20025;-71
2023/07/09 04:34:00;;;;;;;19.83;13.85;;;;;;;20.79;100.00;101659.09;5047561;28;20082;-71
2023/07/09 04:36:26;;;;;;;19.48;14.45;;;;;;;20.84;100.00;101666.84;5053715;28;20025;-70
2023/07/09 04:38:51;;;;;;;18.42;13.82;;;;;;;20.84;100.00;101658.88;5055715;28;20457;-71
2023/07/09 04:41:16;;;;;;;17.67;13.88;;;;;;;20.91;100.00;101662.91;5051717;28;20021;-71
2023/07/09 04:43:42;;;;;;;17.00;13.63;;;;;;;21.02;100.00;101660.53;5057456;28;20025;-71
2023/07/09 04:46:07;;;;;;;20.42;15.77;;;;;;;21.05;100.00;101663.00;5050784;28;20417;-71
2023/07/09 04:48:32;;;;;;;17.65;13.70;;;;;;;21.06;100.00;101659.44;5049179;28;20365;-71
2023/07/09 04:50:59;;;;;;;21.67;14.30;;;;;;;21.13;100.00;101665.25;5051088;28;20435;-71
2023/07/09 04:53:25;;;;;;;15.15;13.40;;;;;;;21.16;100.00;101654.50;5050561;28;20036;-71
2023/07/09 04:55:50;;;;;;;17.92;14.90;;;;;;;21.14;100.00;101651.06;5053344;28;20029;-71
2023/07/09 04:58:16;;;;;;;24.08;16.15;;;;;;;21.28;100.00;101657.28;5049524;28;20031;-71
2023/07/09 05:00:42;;;;;;;21.60;17.17;;;;;;;21.39;100.00;101662.06;5043417;28;20863;-70
2023/07/09 05:03:08;;;;;;;26.52;17.80;;;;;;;21.46;100.00;101662.56;5049983;28;20043;-71
2023/07/09 05:05:33;;;;;;;27.80;19.55;;;;;;;21.52;100.00;101662.22;5050451;28;20109;-71
2023/07/09 05:07:59;;;;;;;24.65;17.33;;;;;;;21.63;100.00;101665.09;5052138;28;20415;-71
2023/07/09 05:10:24;;;;;;;26.83;17.13;;;;;;;21.65;100.00;101662.38;5049400;28;20029;-71
2023/07/09 05:12:52;;;;;;;22.80;16.40;;;;;;;21.77;100.00;101663.47;5052442;28;20082;-71
2023/07/09 05:15:19;;;;;;;24.77;16.40;;;;;;;21.88;100.00;101669.88;5051809;28;20021;-71
2023/07/09 05:17:44;;;;;;;26.15;15.32;;;;;;;21.97;100.00;101657.84;5048619;28;20021;-71
2023/07/09 05:20:10;;;;;;;19.77;14.57;;;;;;;22.07;100.00;101653.72;5051163;28;20032;-71
2023/07/09 05:22:35;;;;;;;17.17;14.60;;;;;;;22.17;100.00;101656.69;5050714;28;20504;-71
2023/07/09 05:25:01;;;;;;;19.50;14.07;;;;;;;22.24;100.00;101659.88;5049905;28;20037;-71
2023/07/09 05:27:26;;;;;;;19.08;13.15;;;;;;;22.41;100.00;101659.72;5056180;28;20025;-71
2023/07/09 05:29:51;;;;;;;16.55;12.95;;;;;;;22.48;100.00;101652.22;5055759;28;20477;-71
2023/07/09 05:32:17;;;;;;;16.70;13.15;;;;;;;22.62;100.00;101657.53;5053713;28;20473;-71
2023/07/09 05:34:42;;;;;;;17.00;12.32;;;;;;;22.74;100.00;101648.81;5055115;28;20029;-70
2023/07/09 05:37:07;;;;;;;15.68;12.23;;;;;;;22.87;100.00;101659.56;5055085;28;20038;-71
2023/07/09 05:39:33;;;;;;;15.77;12.63;;;;;;;22.94;100.00;101652.94;5052758;28;20094;-70
2023/07/09 05:41:58;;;;;;;16.00;12.35;;;;;;;23.04;100.00;101659.38;5052303;28;20473;-70
2023/07/09 05:44:23;;;;;;;17.88;12.48;;;;;;;23.14;100.00;101652.50;5052335;28;20049;-71
2023/07/09 05:46:48;;;;;;;16.17;11.98;;;;;;;23.23;100.00;101653.75;5050452;28;20025;-70
2023/07/09 05:49:14;;;;;;;14.73;11.85;;;;;;;23.30;100.00;101651.53;5054038;28;20044;-70
2023/07/09 05:51:39;;;;;;;14.02;11.57;;;;;;;23.38;99.62;101651.91;5054246;28;20419;-70
2023/07/09 05:54:04;;;;;;;15.27;11.65;;;;;;;23.51;98.75;101663.47;5054490;28;20037;-70
2023/07/09 05:56:30;;;;;;;18.80;11.93;;;;;;;23.59;100.00;101662.97;5050984;28;20017;-71
2023/07/09 05:58:56;;;;;;;14.48;11.20;;;;;;;23.65;99.64;101662.56;5056166;28;20036;-70
2023/07/09 06:01:22;;;;;;;13.48;10.45;;;;;;;23.64;98.57;101650.19;5051258;28;20036;-70
2023/07/09 06:03:47;;;;;;;15.45;11.32;;;;;;;23.76;96.09;101659.22;5053332;28;20025;-70
2023/07/09 06:06:13;;;;;;;15.80;10.82;;;;;;;23.85;96.87;101658.63;5056820;28;20028;-69
2023/07/09 06:08:38;;;;;;;20.60;11.00;;;;;;;23.99;96.35;101665.69;5054159;28;20396;-70
2023/07/09 06:11:04;;;;;;;17.10;10.75;;;;;;;24.06;94.55;101673.16;5058804;28;20086;-71
2023/07/09 06:13:30;;;;;;;13.95;10.90;;;;;;;24.11;92.15;101669.34;5053532;28;20495;-72
2023/07/09 06:15:57;;;;;;;18.17;10.65;;;;;;;24.16;93.22;101678.72;5052302;28;20032;-71
2023/07/09 06:18:24;;;;;;;13.23;10.73;;;;;;;24.27;89.02;101675.34;5053045;28;20024;-71
2023/07/09 06:20:51;;;;;;;15.15;10.70;;;;;;;24.35;88.00;101673.00;5057566;28;20486;-71
2023/07/09 06:23:17;;;;;;;18.88;11.40;;;;;;;24.40;89.08;101676.22;5050019;28;20029;-70
2023/07/09 06:25:47;;;;;;;19.58;11.30;;;;;;;24.45;89.21;101666.09;5052218;28;20031;-70
2023/07/09 06:28:13;;;;;;;15.85;10.77;;;;;;;24.60;87.96;101671.34;5047750;28;20056;-69
2023/07/09 06:30:38;;;;;;;16.40;10.30;;;;;;;24.66;87.41;101674.44;5058927;28;20048;-70
2023/07/09 06:33:03;;;;;;;16.38;11.10;;;;;;;24.72;87.36;101657.13;5054055;28;20028;-71
2023/07/09 06:35:29;;;;;;;14.75;10.38;;;;;;;24.89;84.67;101667.47;5051906;28;20108;-70
2023/07/09 06:37:54;;;;;;;13.75;10.68;;;;;;;24.85;89.92;101658.00;5053273;28;20108;-71
2023/07/09 06:40:19;;;;;;;15.65;9.68;;;;;;;24.96;83.77;101657.22;5051146;28;20043;-69
2023/07/09 06:42:45;;;;;;;14.65;10.00;;;;;;;25.02;86.47;101661.28;5052858;28;20028;-70
2023/07/09 06:45:10;;;;;;;12.30;10.02;;;;;;;25.15;86.49;101671.00;5052525;28;20653;-69
2023/07/09 06:47:35;;;;;;;12.65;9.52;;;;;;;25.26;84.19;101672.88;5053287;28;20151;-70
2023/07/09 06:50:01;;;;;;;15.18;9.68;;;;;;;25.36;81.21;101675.72;5048664;28;20060;-70
2023/07/09 06:52:26;;;;;;;12.20;8.77;;;;;;;25.46;77.42;101674.09;5053033;28;20125;-70
2023/07/09 06:54:51;;;;;;;13.10;9.13;;;;;;;25.54;77.26;101674.41;5050678;28;20044;-70
2023/07/09 06:57:16;;;;;;;13.48;9.20;;;;;;;25.56;78.54;101667.09;5051692;28;20033;-70
2023/07/09 06:59:42;;;;;;;13.90;9.50;;;;;;;25.69;75.68;101680.41;5052799;28;20040;-70
2023/07/09 07:02:08;;;;;;;14.90;8.75;;;;;;;25.76;77.09;101684.31;5052425;28;20095;-70
2023/07/09 07:04:33;;;;;;;13.50;9.50;;;;;;;25.87;77.60;101683.56;5053562;28;20033;-70
2023/07/09 07:06:59;;;;;;;10.07;8.45;;;;;;;25.95;75.55;101681.16;5053534;28;20044;-70
2023/07/09 07:09:24;;;;;;;18.15;8.88;;;;;;;26.07;75.36;101684.75;5052123;28;20024;-70
2023/07/09 07:11:50;;;;;;;9.88;8.02;;;;;;;26.12;77.34;101675.38;5051422;28;20112;-70
2023/07/09 07:14:15;;;;;;;10.10;8.50;;;;;;;26.23;77.84;101677.25;5053326;28;20057;-70
2023/07/09 07:16:41;;;;;;;12.40;8.35;;;;;;;26.29;78.28;101690.16;5049254;28;20036;-70
2023/07/09 07:19:06;;;;;;;11.32;8.20;;;;;;;26.37;77.55;101687.72;5051539;28;20029;-70
2023/07/09 07:21:31;;;;;;;11.10;8.93;;;;;;;26.41;74.25;101690.16;5051784;28;20072;-69
2023/07/09 07:23:57;;;;;;;9.77;8.70;;;;;;;26.41;73.24;101676.81;5052164;28;20499;-71
2023/07/09 07:26:22;;;;;;;12.20;8.45;;;;;;;26.57;68.47;101683.53;5050374;28;20060;-70
2023/07/09 07:28:48;;;;;;;10.65;8.40;;;;;;;26.58;69.05;101698.59;5050581;28;20464;-71
2023/07/09 07:31:13;;;;;;;11.45;8.18;;;;;;;26.64;72.08;101691.09;5050956;28;20037;-70
2023/07/09 07:33:40;;;;;;;13.10;7.60;;;;;;;26.65;66.56;101691.00;5053087;28;20037;-70
2023/07/09 07:36:06;;;;;;;10.73;7.60;;;;;;;26.70;65.28;101696.81;5051718;28;20035;-70
2023/07/09 07:38:32;;;;;;;12.63;8.07;;;;;;;26.78;67.00;101689.06;5048721;28;20025;-70
2023/07/09 07:40:57;;;;;;;11.50;7.60;;;;;;;26.88;68.83;101693.66;5051605;28;20079;-71
2023/07/09 07:43:22;;;;;;;12.23;7.97;;;;;;;26.90;65.22;101689.88;5052269;28;20036;-70
2023/07/09 07:45:48;;;;;;;9.52;8.20;;;;;;;26.96;65.23;101680.53;5052001;28;20075;-72
2023/07/09 07:48:13;;;;;;;14.00;7.53;;;;;;;26.98;62.25;101678.59;5051636;28;20021;-73
2023/07/09 07:50:40;;;;;;;11.02;8.40;;;;;;;27.04;61.42;101684.31;5056407;28;20079;-71
2023/07/09 07:53:07;;;;;;;10.98;7.90;;;;;;;27.05;65.69;101683.34;5050694;28;20024;-71
2023/07/09 07:55:33;;;;;;;9.50;7.75;;;;;;;27.11;59.94;101681.13;5051315;28;20037;-70
2023/07/09 07:57:59;;;;;;;10.80;8.25;;;;;;;27.18;63.48;101685.91;5051287;28;20380;-70
2023/07/09 08:00:25;;;;;;;13.02;8.65;;;;;;;27.28;63.10;101684.19;5050448;28;20488;-70
2023/07/09 08:02:50;;;;;;;11.85;8.73;;;;;;;27.41;65.82;101680.53;5047805;28;20041;-70
2023/07/09 08:05:16;;;;;;;9.07;7.40;;;;;;;27.39;63.56;101671.75;5051233;28;20048;-70
2023/07/09 08:07:41;;;;;;;12.85;7.97;;;;;;;27.58;61.81;101679.13;5051304;28;20043;-70
2023/07/09 08:10:07;;;;;;;9.98;8.25;;;;;;;27.58;63.02;101669.25;5052099;28;20043;-70
2023/07/09 08:12:33;;;;;;;12.38;8.20;;;;;;;27.64;62.50;101671.44;5050914;28;20078;-69
2023/07/09 08:14:58;;;;;;;11.38;8.40;;;;;;;27.77;59.28;101682.88;5049213;28;20116;-70
2023/07/09 08:17:23;;;;;;;10.77;7.85;;;;;;;27.83;58.62;101677.97;5052636;28;20032;-70
2023/07/09 08:19:52;;;;;;;13.27;8.40;;;;;;;27.88;59.47;101673.09;5049870;28;20029;-70
2023/07/09 08:22:20;;;;;;;11.77;8.13;;;;;;;28.03;58.92;101677.16;5052123;28;20025;-73
2023/07/09 08:24:46;;;;;;;10.43;8.05;;;;;;;28.08;57.61;101682.97;5051341;28;20392;-70
2023/07/09 08:27:11;;;;;;;11.35;8.82;;;;;;;28.09;58.62;101673.09;5052516;28;20516;-70
2023/07/09 08:29:37;;;;;;;11.43;7.78;;;;;;;28.14;57.78;101668.19;5051677;28;20392;-70
2023/07/09 08:32:03;;;;;;;10.52;7.97;;;;;;;28.22;61.31;101666.59;5057518;28;20086;-70
2023/07/09 08:34:29;;;;;;;11.80;7.72;;;;;;;28.31;57.60;101669.44;5051386;28;20029;-72
2023/07/09 08:36:54;;;;;;;11.50;8.52;;;;;;;28.37;57.33;101664.41;5048020;28;20043;-71
2023/07/09 08:39:20;;;;;;;13.23;8.38;;;;;;;28.42;59.50;101666.75;5045458;28;20025;-71
2023/07/09 08:41:53;;;;;;;10.55;8.35;;;;;;;28.52;56.03;101666.78;5051928;28;20025;-71
2023/07/09 08:44:43;;;;;;;11.00;8.35;;;;;;;28.59;55.33;101674.16;5051156;28;20074;-71
2023/07/09 08:47:31;;;;;;;11.95;8.48;;;;;;;28.73;56.53;101674.78;5052157;28;20029;-71
2023/07/09 08:50:04;;;;;;;9.63;7.95;;;;;;;28.77;56.62;101676.22;5052044;28;20028;-71
2023/07/09 08:52:36;;;;;;;9.55;7.82;;;;;;;28.82;55.42;101676.69;5052349;28;20040;-71
2023/07/09 08:55:08;;;;;;;11.32;8.52;;;;;;;28.93;55.09;101674.72;5050744;28;20087;-71
2023/07/09 08:57:38;;;;;;;15.82;8.15;;;;;;;28.94;53.69;101683.66;5051351;28;20029;-71
2023/07/09 09:00:16;;;;;;;12.70;8.45;;;;;;;29.07;54.65;101676.25;5052124;28;20150;-71
2023/07/09 09:02:50;;;;;;;8.75;7.68;;;;;;;29.20;54.00;101672.44;5050935;28;20044;-71
2023/07/09 09:05:20;;;;;;;26.42;10.18;;;;;;;29.34;51.52;101674.75;5051687;28;20083;-71
2023/07/09 09:07:53;;;;;;;9.82;8.80;;;;;;;29.29;50.47;101664.41;5051870;28;20059;-71
2023/07/09 09:10:28;;;;;;;12.60;8.45;;;;;;;29.40;53.41;101668.84;5051731;28;20025;-71
2023/07/09 09:13:12;;;;;;;10.27;8.40;;;;;;;29.50;54.50;101650.03;5044471;28;20456;-71
2023/07/09 09:15:40;;;;;;;10.27;8.10;;;;;;;29.76;54.71;101655.75;5049100;28;20029;-71
2023/07/09 09:18:22;;;;;;;12.20;7.95;;;;;;;29.84;51.46;101664.78;5051848;28;20420;-71
2023/07/09 09:20:55;;;;;;;13.25;8.52;;;;;;;29.86;50.58;101657.44;5050608;28;20071;-71
2023/07/09 09:23:21;;;;;;;;;;;;;;;30.02;53.51;101664.94;5052233;28;20490;-71
2023/07/09 09:25:55;;;;;;;9.77;7.82;;;;;;;30.10;51.92;101656.97;5051145;28;19921;-71
2023/07/09 09:28:22;;;;;;;9.45;7.18;;;;;;;30.19;48.60;101649.09;5052185;28;20017;-71
2023/07/09 09:30:47;;;;;;;11.98;7.10;;;;;;;30.18;49.87;101650.03;5050958;28;20029;-71
2023/07/09 09:33:17;;;;;;;11.95;8.02;;;;;;;30.28;49.40;101638.31;5043846;28;20068;-71
2023/07/09 09:35:44;;;;;;;11.13;7.45;;;;;;;30.35;48.55;101643.94;5051578;28;20032;-71
2023/07/09 09:38:19;;;;;;;11.43;7.70;;;;;;;30.42;48.74;101638.84;5050988;28;20053;-71
2023/07/09 09:40:44;;;;;;;11.27;7.75;;;;;;;30.53;50.56;101636.78;5051860;28;20021;-72
2023/07/09 09:43:32;;;;;;;9.45;7.15;;;;;;;30.66;50.85;101627.56;5051406;28;20396;-71
2023/07/09 09:46:01;;;;;;;8.43;6.38;;;;;;;30.82;45.83;101627.78;5051228;28;20094;-71
2023/07/09 09:48:31;;;;;;;9.50;7.18;;;;;;;30.87;45.57;101625.50;5050202;28;20391;-71
2023/07/09 09:51:01;;;;;;;8.65;6.55;;;;;;;30.95;46.71;101616.69;5052304;28;20032;-71
2023/07/09 09:53:28;;;;;;;9.93;7.25;;;;;;;30.99;46.17;101610.81;5050137;28;20471;-72
2023/07/09 09:55:56;;;;;;;10.80;7.78;;;;;;;31.10;48.49;101611.59;5051491;28;20021;-72
2023/07/09 09:58:27;;;;;;;11.07;8.15;;;;;;;31.15;47.04;101593.16;5050604;28;20083;-72
2023/07/09 10:00:56;;;;;;;12.13;8.02;;;;;;;31.41;47.28;101604.91;5055849;28;20028;-71
2023/07/09 10:03:32;;;;;;;13.38;8.00;;;;;;;31.39;47.63;101596.16;5051742;28;20056;-75
2023/07/09 10:05:59;;;;;;;10.32;7.20;;;;;;;31.56;46.12;101617.84;5054089;28;20079;-71
2023/07/09 10:08:40;;;;;;;12.32;7.97;;;;;;;31.58;44.60;101621.22;5050187;28;20047;-71
2023/07/09 10:11:18;;;;;;;9.77;7.70;;;;;;;31.66;46.92;101615.91;5049619;28;20123;-73
2023/07/09 10:13:45;;;;;;;11.27;7.28;;;;;;;31.91;45.54;101612.44;5047172;28;20029;-71
2023/07/09 10:16:29;;;;;;;8.32;7.05;;;;;;;31.99;46.59;101614.34;5053216;28;20082;-71
2023/07/09 10:19:08;;;;;;;10.07;6.65;;;;;;;32.08;43.89;101621.50;5054436;28;20104;-71
2023/07/09 10:21:45;;;;;;;8.93;7.47;;;;;;;32.11;42.87;101614.94;5054315;28;20487;-72
2023/07/09 10:24:32;;;;;;;10.73;6.68;;;;;;;32.26;44.20;101636.78;5049048;28;20029;-73
2023/07/09 10:27:12;;;;;;;11.80;6.70;;;;;;;32.43;43.79;101648.56;5054394;28;20082;-71
2023/07/09 10:30:01;;;;;;;8.65;6.78;;;;;;;32.38;42.23;101633.66;5052816;28;20045;-71
2023/07/09 10:32:55;;;;;;;9.00;6.93;;;;;;;32.53;42.66;101649.28;5048172;28;20025;-71
2023/07/09 10:35:37;;;;;;;8.00;6.75;;;;;;;32.71;42.41;101647.34;5058530;28;20036;-71
2023/07/09 10:38:21;;;;;;;11.70;6.95;;;;;;;32.87;43.36;101647.44;5053012;28;20025;-71
2023/07/09 10:40:52;;;;;;;9.93;7.00;;;;;;;33.09;42.14;101651.44;5052070;28;20029;-71
2023/07/09 10:43:31;;;;;;;10.52;7.15;;;;;;;33.17;41.48;101649.75;5053497;28;20029;-71
2023/07/09 10:46:03;;;;;;;7.95;7.15;;;;;;;33.20;42.40;101642.16;5051769;28;20392;-72
2023/07/09 10:48:40;;;;;;;;;;;;;;;33.38;43.67;101642.00;5045083;28;20540;-72
2023/07/09 10:51:17;;;;;;;10.05;7.43;;;;;;;33.23;42.57;101633.72;5051037;28;19927;-71
2023/07/09 10:53:47;;;;;;;10.20;6.35;;;;;;;33.34;39.65;101630.69;5050313;28;20070;-71
2023/07/09 10:56:16;;;;;;;9.52;7.03;;;;;;;33.50;39.86;101626.38;5057152;28;20092;-71
2023/07/09 10:58:54;;;;;;;9.07;6.25;;;;;;;33.62;42.53;101619.63;5057564;28;20021;-71
2023/07/09 11:01:29;;;;;;;13.77;6.93;;;;;;;33.70;42.79;101616.91;5051413;28;20033;-72
2023/07/09 11:04:03;;;;;;;10.18;7.07;;;;;;;33.90;38.29;101627.38;5054219;28;20029;-71
2023/07/09 11:06:35;;;;;;;10.25;6.88;;;;;;;33.95;44.15;101619.63;5053001;28;20048;-71
2023/07/09 11:09:02;;;;;;;7.75;6.55;;;;;;;34.11;39.95;101616.03;5054390;28;20036;-71
2023/07/09 11:11:36;;;;;;;8.27;6.10;;;;;;;34.42;40.23;101614.28;5052143;28;20060;-72
2023/07/09 11:14:07;;;;;;;10.55;6.43;;;;;;;34.50;42.31;101624.25;5046270;28;20040;-71
2023/07/09 11:16:38;;;;;;;10.57;6.22;;;;;;;34.68;40.93;101626.75;5054616;28;20040;-71